Acomita, New Mexico
Current Conditions -  °F | °C
As of 12:55 PM on Saturday 20 Dec 2014 (Local Time) from KGNT Reporting Station
Clear Clear  
Wind Chill: 38°   Ceiling: Unl
Heat Index: 42°   Visibility: 10mi
Dew Point: 21°   Wind: 6mph
Humidity: 43%   Direction: 360°N
Pressure: 30.14"   Gusts: NA
Location:  35.0806°N, 107.597°W
Report Text: KGNT 201955Z AUTO 36005KT 10SM CLR 06/M06 A3014 RMK AO2 T00561060
Loading
Personal Weather Stations






























Interactive Weather Map New forecast layout! Learn more

10-Day Weather Forecast

Advertisements
Track Severe Weather on mobile